sensor_id;sensor_type;location;lat;lon;timestamp;P1;durP1;ratioP1;P2;durP2;ratioP2
26201;SDS011;13944;28.562;77.188;2022-08-01T00:01:13;27.20;;;16.40;;
26201;SDS011;13944;28.562;77.188;2022-08-01T00:03:39;31.48;;;16.35;;
26201;SDS011;13944;28.562;77.188;2022-08-01T00:06:06;33.63;;;17.05;;
26201;SDS011;13944;28.562;77.188;2022-08-01T00:08:33;23.80;;;16.17;;
26201;SDS011;13944;28.562;77.188;2022-08-01T00:10:59;27.98;;;16.27;;
26201;SDS011;13944;28.562;77.188;2022-08-01T00:13:26;35.08;;;20.30;;
26201;SDS011;13944;28.562;77.188;2022-08-01T00:15:52;36.65;;;23.52;;
26201;SDS011;13944;28.562;77.188;2022-08-01T00:18:19;39.30;;;19.55;;
26201;SDS011;13944;28.562;77.188;2022-08-01T00:20:45;38.28;;;19.08;;
26201;SDS011;13944;28.562;77.188;2022-08-01T00:23:12;42.42;;;18.17;;
26201;SDS011;13944;28.562;77.188;2022-08-01T00:25:38;33.88;;;16.90;;
26201;SDS011;13944;28.562;77.188;2022-08-01T00:28:05;28.83;;;17.00;;
26201;SDS011;13944;28.562;77.188;2022-08-01T00:30:34;32.45;;;16.70;;
26201;SDS011;13944;28.562;77.188;2022-08-01T00:33:01;27.70;;;16.27;;
26201;SDS011;13944;28.562;77.188;2022-08-01T00:35:27;27.60;;;15.25;;
26201;SDS011;13944;28.562;77.188;2022-08-01T00:37:54;35.63;;;16.35;;
26201;SDS011;13944;28.562;77.188;2022-08-01T00:40:21;32.22;;;16.60;;
26201;SDS011;13944;28.562;77.188;2022-08-01T00:42:47;30.58;;;15.90;;
26201;SDS011;13944;28.562;77.188;2022-08-01T00:45:14;38.13;;;17.23;;
26201;SDS011;13944;28.562;77.188;2022-08-01T00:47:41;29.60;;;16.85;;
26201;SDS011;13944;28.562;77.188;2022-08-01T00:50:07;27.45;;;16.45;;
26201;SDS011;13944;28.562;77.188;2022-08-01T00:52:34;31.85;;;17.25;;
26201;SDS011;13944;28.562;77.188;2022-08-01T00:55:01;38.95;;;19.95;;
26201;SDS011;13944;28.562;77.188;2022-08-01T00:57:28;35.40;;;18.52;;
26201;SDS011;13944;28.562;77.188;2022-08-01T00:59:55;36.58;;;18.35;;
26201;SDS011;13944;28.562;77.188;2022-08-01T01:02:22;36.85;;;18.13;;
26201;SDS011;13944;28.562;77.188;2022-08-01T01:04:49;33.05;;;18.95;;
26201;SDS011;13944;28.562;77.188;2022-08-01T01:10:02;31.50;;;17.42;;
26201;SDS011;13944;28.562;77.188;2022-08-01T01:12:37;62.08;;;17.80;;
26201;SDS011;13944;28.562;77.188;2022-08-01T01:15:06;34.15;;;17.35;;
26201;SDS011;13944;28.562;77.188;2022-08-01T01:17:55;28.70;;;15.93;;
26201;SDS011;13944;28.562;77.188;2022-08-01T01:20:21;31.15;;;15.45;;
26201;SDS011;13944;28.562;77.188;2022-08-01T01:30:22;28.73;;;14.20;;
26201;SDS011;13944;28.562;77.188;2022-08-01T01:32:50;27.75;;;13.20;;
26201;SDS011;13944;28.562;77.188;2022-08-01T01:35:20;30.70;;;13.18;;
26201;SDS011;13944;28.562;77.188;2022-08-01T01:37:47;24.17;;;13.32;;
26201;SDS011;13944;28.562;77.188;2022-08-01T01:40:15;27.67;;;13.30;;
26201;SDS011;13944;28.562;77.188;2022-08-01T01:42:42;29.60;;;12.80;;
26201;SDS011;13944;28.562;77.188;2022-08-01T01:45:09;24.92;;;12.07;;
26201;SDS011;13944;28.562;77.188;2022-08-01T01:47:36;27.10;;;11.98;;
26201;SDS011;13944;28.562;77.188;2022-08-01T01:50:05;24.38;;;11.48;;
26201;SDS011;13944;28.562;77.188;2022-08-01T01:52:32;19.08;;;11.23;;
26201;SDS011;13944;28.562;77.188;2022-08-01T01:54:59;24.10;;;11.32;;
26201;SDS011;13944;28.562;77.188;2022-08-01T01:57:27;20.88;;;10.88;;
26201;SDS011;13944;28.562;77.188;2022-08-01T01:59:55;29.25;;;12.35;;
26201;SDS011;13944;28.562;77.188;2022-08-01T02:02:23;36.40;;;12.55;;
26201;SDS011;13944;28.562;77.188;2022-08-01T02:04:50;26.50;;;11.30;;
26201;SDS011;13944;28.562;77.188;2022-08-01T02:07:19;25.40;;;11.60;;
26201;SDS011;13944;28.562;77.188;2022-08-01T02:09:46;26.38;;;11.23;;
26201;SDS011;13944;28.562;77.188;2022-08-01T02:12:13;24.00;;;10.25;;
26201;SDS011;13944;28.562;77.188;2022-08-01T02:14:40;24.95;;;9.90;;
26201;SDS011;13944;28.562;77.188;2022-08-01T02:17:09;30.90;;;10.95;;
26201;SDS011;13944;28.562;77.188;2022-08-01T02:19:36;22.10;;;9.88;;
26201;SDS011;13944;28.562;77.188;2022-08-01T02:22:11;26.67;;;10.60;;
26201;SDS011;13944;28.562;77.188;2022-08-01T02:24:42;30.02;;;11.85;;
26201;SDS011;13944;28.562;77.188;2022-08-01T02:27:14;21.98;;;10.52;;
26201;SDS011;13944;28.562;77.188;2022-08-01T02:29:47;22.35;;;9.98;;
26201;SDS011;13944;28.562;77.188;2022-08-01T02:32:33;19.08;;;9.75;;
26201;SDS011;13944;28.562;77.188;2022-08-01T02:35:00;21.02;;;10.70;;
26201;SDS011;13944;28.562;77.188;2022-08-01T02:37:29;20.67;;;9.05;;
26201;SDS011;13944;28.562;77.188;2022-08-01T02:39:58;25.77;;;9.27;;
26201;SDS011;13944;28.562;77.188;2022-08-01T02:42:26;21.83;;;8.45;;
26201;SDS011;13944;28.562;77.188;2022-08-01T02:44:55;18.20;;;8.05;;
26201;SDS011;13944;28.562;77.188;2022-08-01T02:47:22;20.48;;;9.27;;
26201;SDS011;13944;28.562;77.188;2022-08-01T02:49:49;22.30;;;10.10;;
26201;SDS011;13944;28.562;77.188;2022-08-01T02:52:17;19.33;;;9.13;;
26201;SDS011;13944;28.562;77.188;2022-08-01T02:54:45;23.38;;;9.55;;
26201;SDS011;13944;28.562;77.188;2022-08-01T02:57:13;25.90;;;10.00;;
26201;SDS011;13944;28.562;77.188;2022-08-01T02:59:43;27.08;;;11.55;;
26201;SDS011;13944;28.562;77.188;2022-08-01T03:02:10;28.88;;;10.95;;
26201;SDS011;13944;28.562;77.188;2022-08-01T03:04:38;22.50;;;10.43;;
26201;SDS011;13944;28.562;77.188;2022-08-01T03:07:05;27.00;;;12.82;;
26201;SDS011;13944;28.562;77.188;2022-08-01T03:09:34;23.85;;;11.25;;
26201;SDS011;13944;28.562;77.188;2022-08-01T03:12:02;31.75;;;11.30;;
26201;SDS011;13944;28.562;77.188;2022-08-01T03:14:29;25.63;;;11.90;;
26201;SDS011;13944;28.562;77.188;2022-08-01T03:16:57;25.77;;;12.20;;
26201;SDS011;13944;28.562;77.188;2022-08-01T03:19:26;24.13;;;12.60;;
26201;SDS011;13944;28.562;77.188;2022-08-01T03:21:53;28.58;;;13.32;;
26201;SDS011;13944;28.562;77.188;2022-08-01T03:24:21;24.88;;;12.32;;
26201;SDS011;13944;28.562;77.188;2022-08-01T03:26:48;25.58;;;12.98;;
26201;SDS011;13944;28.562;77.188;2022-08-01T03:29:19;20.45;;;11.90;;
26201;SDS011;13944;28.562;77.188;2022-08-01T03:31:46;22.98;;;11.65;;
26201;SDS011;13944;28.562;77.188;2022-08-01T03:34:13;24.65;;;12.80;;
26201;SDS011;13944;28.562;77.188;2022-08-01T03:36:49;21.38;;;12.30;;
26201;SDS011;13944;28.562;77.188;2022-08-01T03:39:18;22.08;;;11.02;;
26201;SDS011;13944;28.562;77.188;2022-08-01T03:41:51;30.77;;;15.43;;
26201;SDS011;13944;28.562;77.188;2022-08-01T03:44:20;26.58;;;12.43;;
26201;SDS011;13944;28.562;77.188;2022-08-01T03:46:51;30.67;;;11.55;;
26201;SDS011;13944;28.562;77.188;2022-08-01T03:49:22;23.80;;;11.10;;
26201;SDS011;13944;28.562;77.188;2022-08-01T03:51:49;22.42;;;10.85;;
26201;SDS011;13944;28.562;77.188;2022-08-01T03:54:17;27.50;;;11.30;;
26201;SDS011;13944;28.562;77.188;2022-08-01T03:56:46;23.15;;;10.80;;
26201;SDS011;13944;28.562;77.188;2022-08-01T03:59:15;31.20;;;11.65;;
26201;SDS011;13944;28.562;77.188;2022-08-01T04:01:43;22.80;;;11.02;;
26201;SDS011;13944;28.562;77.188;2022-08-01T04:04:10;29.67;;;11.77;;
26201;SDS011;13944;28.562;77.188;2022-08-01T04:06:37;28.85;;;12.10;;
26201;SDS011;13944;28.562;77.188;2022-08-01T04:09:04;26.13;;;12.73;;
26201;SDS011;13944;28.562;77.188;2022-08-01T04:11:30;28.10;;;12.70;;
26201;SDS011;13944;28.562;77.188;2022-08-01T04:13:57;25.02;;;12.00;;
26201;SDS011;13944;28.562;77.188;2022-08-01T04:16:24;38.15;;;14.32;;
26201;SDS011;13944;28.562;77.188;2022-08-01T04:18:51;28.58;;;13.20;;
26201;SDS011;13944;28.562;77.188;2022-08-01T04:21:18;32.97;;;12.15;;
26201;SDS011;13944;28.562;77.188;2022-08-01T04:23:47;21.67;;;10.77;;
26201;SDS011;13944;28.562;77.188;2022-08-01T04:26:16;21.73;;;10.00;;
26201;SDS011;13944;28.562;77.188;2022-08-01T04:28:43;19.85;;;9.52;;
26201;SDS011;13944;28.562;77.188;2022-08-01T04:31:10;20.25;;;9.73;;
26201;SDS011;13944;28.562;77.188;2022-08-01T04:33:42;16.20;;;9.00;;
26201;SDS011;13944;28.562;77.188;2022-08-01T04:36:10;19.27;;;8.23;;
26201;SDS011;13944;28.562;77.188;2022-08-01T04:38:38;18.42;;;9.32;;
26201;SDS011;13944;28.562;77.188;2022-08-01T04:41:06;21.77;;;10.13;;
26201;SDS011;13944;28.562;77.188;2022-08-01T04:43:33;20.60;;;10.02;;
26201;SDS011;13944;28.562;77.188;2022-08-01T04:45:59;28.80;;;10.13;;
26201;SDS011;13944;28.562;77.188;2022-08-01T04:48:29;23.85;;;10.65;;
26201;SDS011;13944;28.562;77.188;2022-08-01T04:50:56;17.52;;;11.07;;
26201;SDS011;13944;28.562;77.188;2022-08-01T04:53:22;25.42;;;10.98;;
26201;SDS011;13944;28.562;77.188;2022-08-01T04:55:49;27.70;;;12.45;;
26201;SDS011;13944;28.562;77.188;2022-08-01T04:58:15;33.67;;;12.45;;
26201;SDS011;13944;28.562;77.188;2022-08-01T05:00:42;25.65;;;11.73;;
26201;SDS011;13944;28.562;77.188;2022-08-01T05:03:09;21.05;;;10.05;;
26201;SDS011;13944;28.562;77.188;2022-08-01T05:05:35;24.40;;;11.80;;
26201;SDS011;13944;28.562;77.188;2022-08-01T05:08:02;30.10;;;11.73;;
26201;SDS011;13944;28.562;77.188;2022-08-01T05:10:28;23.98;;;11.50;;
26201;SDS011;13944;28.562;77.188;2022-08-01T05:12:56;22.33;;;11.23;;
26201;SDS011;13944;28.562;77.188;2022-08-01T05:15:22;20.95;;;11.20;;
26201;SDS011;13944;28.562;77.188;2022-08-01T05:17:49;26.92;;;11.32;;
26201;SDS011;13944;28.562;77.188;2022-08-01T05:20:15;22.77;;;11.70;;
26201;SDS011;13944;28.562;77.188;2022-08-01T05:22:42;22.75;;;12.10;;
26201;SDS011;13944;28.562;77.188;2022-08-01T05:25:09;26.80;;;12.90;;
26201;SDS011;13944;28.562;77.188;2022-08-01T05:27:35;22.95;;;11.82;;
26201;SDS011;13944;28.562;77.188;2022-08-01T05:30:05;21.50;;;11.65;;
26201;SDS011;13944;28.562;77.188;2022-08-01T05:32:32;26.17;;;12.85;;
26201;SDS011;13944;28.562;77.188;2022-08-01T05:34:59;22.27;;;11.82;;
26201;SDS011;13944;28.562;77.188;2022-08-01T05:37:25;23.73;;;13.25;;
26201;SDS011;13944;28.562;77.188;2022-08-01T05:39:52;26.50;;;13.10;;
26201;SDS011;13944;28.562;77.188;2022-08-01T05:42:19;25.35;;;13.23;;
26201;SDS011;13944;28.562;77.188;2022-08-01T05:44:45;29.25;;;13.88;;
26201;SDS011;13944;28.562;77.188;2022-08-01T05:47:12;26.65;;;14.07;;
26201;SDS011;13944;28.562;77.188;2022-08-01T05:49:39;22.02;;;12.60;;
26201;SDS011;13944;28.562;77.188;2022-08-01T05:52:06;26.25;;;12.20;;
26201;SDS011;13944;28.562;77.188;2022-08-01T05:54:32;21.45;;;13.15;;
26201;SDS011;13944;28.562;77.188;2022-08-01T05:56:59;21.15;;;11.70;;
26201;SDS011;13944;28.562;77.188;2022-08-01T05:59:30;26.55;;;12.57;;
26201;SDS011;13944;28.562;77.188;2022-08-01T06:01:56;26.42;;;13.63;;
26201;SDS011;13944;28.562;77.188;2022-08-01T06:04:23;25.42;;;12.80;;
26201;SDS011;13944;28.562;77.188;2022-08-01T06:06:50;34.83;;;14.05;;
26201;SDS011;13944;28.562;77.188;2022-08-01T06:09:16;34.33;;;13.63;;
26201;SDS011;13944;28.562;77.188;2022-08-01T06:11:43;27.88;;;12.25;;
26201;SDS011;13944;28.562;77.188;2022-08-01T06:14:09;21.60;;;11.38;;
26201;SDS011;13944;28.562;77.188;2022-08-01T06:16:36;28.05;;;11.25;;
26201;SDS011;13944;28.562;77.188;2022-08-01T06:19:02;24.60;;;10.88;;
26201;SDS011;13944;28.562;77.188;2022-08-01T06:21:29;20.58;;;10.38;;
26201;SDS011;13944;28.562;77.188;2022-08-01T06:23:55;22.15;;;11.30;;
26201;SDS011;13944;28.562;77.188;2022-08-01T06:26:22;23.80;;;10.68;;
26201;SDS011;13944;28.562;77.188;2022-08-01T06:28:49;25.25;;;11.05;;
26201;SDS011;13944;28.562;77.188;2022-08-01T06:31:15;28.27;;;12.05;;
26201;SDS011;13944;28.562;77.188;2022-08-01T06:33:42;21.70;;;11.13;;
26201;SDS011;13944;28.562;77.188;2022-08-01T06:36:08;18.83;;;11.25;;
26201;SDS011;13944;28.562;77.188;2022-08-01T06:38:35;19.40;;;10.52;;
26201;SDS011;13944;28.562;77.188;2022-08-01T06:41:01;21.40;;;11.20;;
26201;SDS011;13944;28.562;77.188;2022-08-01T06:43:28;31.55;;;11.65;;
26201;SDS011;13944;28.562;77.188;2022-08-01T06:45:56;23.25;;;11.88;;
26201;SDS011;13944;28.562;77.188;2022-08-01T06:48:23;21.75;;;11.45;;
26201;SDS011;13944;28.562;77.188;2022-08-01T06:50:49;24.17;;;11.50;;
26201;SDS011;13944;28.562;77.188;2022-08-01T06:53:33;26.33;;;11.38;;
26201;SDS011;13944;28.562;77.188;2022-08-01T06:56:00;26.65;;;11.45;;
26201;SDS011;13944;28.562;77.188;2022-08-01T06:58:26;23.45;;;11.98;;
26201;SDS011;13944;28.562;77.188;2022-08-01T07:00:53;21.25;;;10.60;;
26201;SDS011;13944;28.562;77.188;2022-08-01T07:03:19;25.58;;;11.52;;
26201;SDS011;13944;28.562;77.188;2022-08-01T07:05:46;22.00;;;11.07;;
26201;SDS011;13944;28.562;77.188;2022-08-01T07:08:13;24.95;;;11.20;;
26201;SDS011;13944;28.562;77.188;2022-08-01T07:10:40;25.42;;;11.43;;
26201;SDS011;13944;28.562;77.188;2022-08-01T07:13:06;23.70;;;11.90;;
26201;SDS011;13944;28.562;77.188;2022-08-01T07:15:33;23.23;;;11.35;;
26201;SDS011;13944;28.562;77.188;2022-08-01T07:17:59;21.42;;;11.07;;
26201;SDS011;13944;28.562;77.188;2022-08-01T07:20:28;22.17;;;10.60;;
26201;SDS011;13944;28.562;77.188;2022-08-01T07:22:55;17.38;;;10.85;;
26201;SDS011;13944;28.562;77.188;2022-08-01T07:25:22;26.38;;;12.18;;
26201;SDS011;13944;28.562;77.188;2022-08-01T07:27:48;25.33;;;10.55;;
26201;SDS011;13944;28.562;77.188;2022-08-01T07:30:15;37.88;;;12.32;;
26201;SDS011;13944;28.562;77.188;2022-08-01T07:32:41;23.73;;;13.65;;
26201;SDS011;13944;28.562;77.188;2022-08-01T07:35:08;23.65;;;13.73;;
26201;SDS011;13944;28.562;77.188;2022-08-01T07:37:35;22.42;;;11.60;;
26201;SDS011;13944;28.562;77.188;2022-08-01T07:40:02;23.70;;;10.95;;
26201;SDS011;13944;28.562;77.188;2022-08-01T07:42:29;22.73;;;11.13;;
26201;SDS011;13944;28.562;77.188;2022-08-01T07:44:56;18.55;;;11.45;;
26201;SDS011;13944;28.562;77.188;2022-08-01T07:47:25;22.42;;;13.88;;
26201;SDS011;13944;28.562;77.188;2022-08-01T07:49:52;20.42;;;12.57;;
26201;SDS011;13944;28.562;77.188;2022-08-01T07:52:19;22.35;;;13.23;;
26201;SDS011;13944;28.562;77.188;2022-08-01T07:54:45;28.13;;;14.95;;
26201;SDS011;13944;28.562;77.188;2022-08-01T07:57:12;23.58;;;15.85;;
26201;SDS011;13944;28.562;77.188;2022-08-01T07:59:38;25.13;;;16.50;;
26201;SDS011;13944;28.562;77.188;2022-08-01T08:02:05;21.02;;;14.05;;
26201;SDS011;13944;28.562;77.188;2022-08-01T08:04:31;25.77;;;14.35;;
26201;SDS011;13944;28.562;77.188;2022-08-01T08:06:58;28.38;;;17.15;;
26201;SDS011;13944;28.562;77.188;2022-08-01T08:09:25;26.98;;;21.35;;
26201;SDS011;13944;28.562;77.188;2022-08-01T08:11:52;25.30;;;19.80;;
26201;SDS011;13944;28.562;77.188;2022-08-01T08:14:18;29.60;;;21.83;;
26201;SDS011;13944;28.562;77.188;2022-08-01T08:16:47;40.40;;;23.02;;
26201;SDS011;13944;28.562;77.188;2022-08-01T08:19:14;31.65;;;23.42;;
26201;SDS011;13944;28.562;77.188;2022-08-01T08:21:41;33.97;;;23.98;;
26201;SDS011;13944;28.562;77.188;2022-08-01T08:24:07;34.40;;;24.55;;
26201;SDS011;13944;28.562;77.188;2022-08-01T08:26:50;38.90;;;28.05;;
26201;SDS011;13944;28.562;77.188;2022-08-01T08:29:18;40.65;;;34.20;;
26201;SDS011;13944;28.562;77.188;2022-08-01T08:31:45;52.90;;;35.05;;
26201;SDS011;13944;28.562;77.188;2022-08-01T08:34:11;44.35;;;34.90;;
26201;SDS011;13944;28.562;77.188;2022-08-01T08:36:38;39.92;;;32.75;;
26201;SDS011;13944;28.562;77.188;2022-08-01T08:39:05;38.75;;;31.80;;
26201;SDS011;13944;28.562;77.188;2022-08-01T08:41:32;35.33;;;30.00;;
26201;SDS011;13944;28.562;77.188;2022-08-01T08:44:02;33.97;;;29.77;;
26201;SDS011;13944;28.562;77.188;2022-08-01T08:46:29;34.95;;;30.10;;
26201;SDS011;13944;28.562;77.188;2022-08-01T08:49:00;37.13;;;28.33;;
26201;SDS011;13944;28.562;77.188;2022-08-01T08:51:27;42.50;;;29.27;;
26201;SDS011;13944;28.562;77.188;2022-08-01T08:53:56;36.80;;;27.45;;
26201;SDS011;13944;28.562;77.188;2022-08-01T08:56:23;42.13;;;28.45;;
26201;SDS011;13944;28.562;77.188;2022-08-01T08:58:50;29.92;;;24.52;;
26201;SDS011;13944;28.562;77.188;2022-08-01T09:01:17;34.22;;;22.65;;
26201;SDS011;13944;28.562;77.188;2022-08-01T09:03:44;27.10;;;21.33;;
26201;SDS011;13944;28.562;77.188;2022-08-01T09:06:10;28.08;;;18.50;;
26201;SDS011;13944;28.562;77.188;2022-08-01T09:08:37;23.38;;;17.77;;
26201;SDS011;13944;28.562;77.188;2022-08-01T09:11:03;27.95;;;18.30;;
26201;SDS011;13944;28.562;77.188;2022-08-01T09:13:30;25.40;;;16.50;;
26201;SDS011;13944;28.562;77.188;2022-08-01T09:15:57;30.50;;;16.65;;
26201;SDS011;13944;28.562;77.188;2022-08-01T09:18:28;52.60;;;17.27;;
26201;SDS011;13944;28.562;77.188;2022-08-01T09:23:42;23.38;;;13.48;;
26201;SDS011;13944;28.562;77.188;2022-08-01T09:26:09;30.35;;;13.82;;
26201;SDS011;13944;28.562;77.188;2022-08-01T09:28:37;25.48;;;12.77;;
26201;SDS011;13944;28.562;77.188;2022-08-01T09:31:07;18.10;;;11.27;;
26201;SDS011;13944;28.562;77.188;2022-08-01T09:33:54;28.70;;;11.55;;
26201;SDS011;13944;28.562;77.188;2022-08-01T09:36:22;20.80;;;11.52;;
26201;SDS011;13944;28.562;77.188;2022-08-01T09:38:49;16.85;;;11.07;;
26201;SDS011;13944;28.562;77.188;2022-08-01T09:41:15;16.13;;;10.27;;
26201;SDS011;13944;28.562;77.188;2022-08-01T09:43:51;25.08;;;10.65;;
26201;SDS011;13944;28.562;77.188;2022-08-01T09:46:17;21.20;;;10.23;;
26201;SDS011;13944;28.562;77.188;2022-08-01T09:49:04;24.23;;;10.32;;
26201;SDS011;13944;28.562;77.188;2022-08-01T09:51:35;22.52;;;10.85;;
26201;SDS011;13944;28.562;77.188;2022-08-01T09:54:03;17.35;;;10.35;;
26201;SDS011;13944;28.562;77.188;2022-08-01T09:59:34;28.88;;;12.40;;
26201;SDS011;13944;28.562;77.188;2022-08-01T10:02:01;26.30;;;13.63;;
26201;SDS011;13944;28.562;77.188;2022-08-01T10:04:28;33.30;;;13.32;;
26201;SDS011;13944;28.562;77.188;2022-08-01T10:07:02;29.00;;;13.90;;
26201;SDS011;13944;28.562;77.188;2022-08-01T10:09:30;28.80;;;14.70;;
26201;SDS011;13944;28.562;77.188;2022-08-01T10:11:57;36.40;;;15.63;;
26201;SDS011;13944;28.562;77.188;2022-08-01T10:14:25;39.35;;;15.50;;
26201;SDS011;13944;28.562;77.188;2022-08-01T10:16:52;34.55;;;15.65;;
26201;SDS011;13944;28.562;77.188;2022-08-01T10:19:21;30.40;;;15.25;;
26201;SDS011;13944;28.562;77.188;2022-08-01T10:21:48;26.52;;;15.27;;
26201;SDS011;13944;28.562;77.188;2022-08-01T10:24:18;25.95;;;15.25;;
26201;SDS011;13944;28.562;77.188;2022-08-01T10:26:47;32.65;;;15.00;;
26201;SDS011;13944;28.562;77.188;2022-08-01T10:29:17;26.50;;;14.55;;
26201;SDS011;13944;28.562;77.188;2022-08-01T10:31:46;31.42;;;13.85;;
26201;SDS011;13944;28.562;77.188;2022-08-01T10:34:13;29.67;;;14.80;;
26201;SDS011;13944;28.562;77.188;2022-08-01T10:36:47;26.33;;;13.85;;
26201;SDS011;13944;28.562;77.188;2022-08-01T10:39:14;22.75;;;12.73;;
26201;SDS011;13944;28.562;77.188;2022-08-01T10:41:42;23.75;;;12.68;;
26201;SDS011;13944;28.562;77.188;2022-08-01T10:44:09;26.52;;;12.45;;
26201;SDS011;13944;28.562;77.188;2022-08-01T10:46:37;23.42;;;12.95;;
26201;SDS011;13944;28.562;77.188;2022-08-01T10:49:09;29.05;;;12.98;;
26201;SDS011;13944;28.562;77.188;2022-08-01T10:51:37;24.30;;;12.30;;
26201;SDS011;13944;28.562;77.188;2022-08-01T10:54:08;22.17;;;12.65;;
26201;SDS011;13944;28.562;77.188;2022-08-01T10:56:45;22.98;;;11.63;;
26201;SDS011;13944;28.562;77.188;2022-08-01T10:59:25;20.33;;;11.75;;
26201;SDS011;13944;28.562;77.188;2022-08-01T11:01:56;19.95;;;11.23;;
26201;SDS011;13944;28.562;77.188;2022-08-01T11:04:32;36.10;;;13.07;;
26201;SDS011;13944;28.562;77.188;2022-08-01T11:07:03;24.80;;;11.85;;
26201;SDS011;13944;28.562;77.188;2022-08-01T11:09:31;24.60;;;11.35;;
26201;SDS011;13944;28.562;77.188;2022-08-01T11:17:32;23.30;;;12.50;;
26201;SDS011;13944;28.562;77.188;2022-08-01T11:22:32;24.02;;;11.45;;
26201;SDS011;13944;28.562;77.188;2022-08-01T11:24:58;20.83;;;11.27;;
26201;SDS011;13944;28.562;77.188;2022-08-01T11:27:27;31.77;;;12.93;;
26201;SDS011;13944;28.562;77.188;2022-08-01T11:32:47;23.00;;;13.25;;
26201;SDS011;13944;28.562;77.188;2022-08-01T11:35:14;20.48;;;12.20;;
26201;SDS011;13944;28.562;77.188;2022-08-01T11:37:40;24.02;;;12.15;;
26201;SDS011;13944;28.562;77.188;2022-08-01T11:40:17;24.17;;;12.60;;
26201;SDS011;13944;28.562;77.188;2022-08-01T11:42:44;26.85;;;12.52;;
26201;SDS011;13944;28.562;77.188;2022-08-01T11:45:10;22.05;;;12.45;;
26201;SDS011;13944;28.562;77.188;2022-08-01T11:47:50;28.88;;;13.27;;
26201;SDS011;13944;28.562;77.188;2022-08-01T11:50:30;23.30;;;13.02;;
26201;SDS011;13944;28.562;77.188;2022-08-01T11:53:00;23.55;;;13.13;;
26201;SDS011;13944;28.562;77.188;2022-08-01T11:55:27;26.23;;;13.43;;
26201;SDS011;13944;28.562;77.188;2022-08-01T11:58:12;24.55;;;14.05;;
26201;SDS011;13944;28.562;77.188;2022-08-01T12:00:39;33.38;;;14.23;;
26201;SDS011;13944;28.562;77.188;2022-08-01T12:03:06;30.95;;;14.63;;
26201;SDS011;13944;28.562;77.188;2022-08-01T12:05:34;30.38;;;14.13;;
26201;SDS011;13944;28.562;77.188;2022-08-01T12:08:02;24.98;;;14.32;;
26201;SDS011;13944;28.562;77.188;2022-08-01T12:10:35;25.25;;;13.65;;
26201;SDS011;13944;28.562;77.188;2022-08-01T12:13:02;24.70;;;14.10;;
26201;SDS011;13944;28.562;77.188;2022-08-01T12:15:33;27.33;;;13.63;;
26201;SDS011;13944;28.562;77.188;2022-08-01T12:18:01;23.83;;;14.30;;
26201;SDS011;13944;28.562;77.188;2022-08-01T12:20:39;25.88;;;14.25;;
26201;SDS011;13944;28.562;77.188;2022-08-01T12:23:07;30.02;;;12.85;;
26201;SDS011;13944;28.562;77.188;2022-08-01T12:25:34;23.40;;;12.98;;
26201;SDS011;13944;28.562;77.188;2022-08-01T12:28:02;26.13;;;14.05;;
26201;SDS011;13944;28.562;77.188;2022-08-01T12:30:29;28.20;;;13.45;;
26201;SDS011;13944;28.562;77.188;2022-08-01T12:32:56;29.00;;;13.32;;
26201;SDS011;13944;28.562;77.188;2022-08-01T12:35:24;31.45;;;13.60;;
26201;SDS011;13944;28.562;77.188;2022-08-01T12:37:53;29.17;;;14.40;;
26201;SDS011;13944;28.562;77.188;2022-08-01T12:40:27;34.83;;;14.90;;
26201;SDS011;13944;28.562;77.188;2022-08-01T12:42:55;28.48;;;13.80;;
26201;SDS011;13944;28.562;77.188;2022-08-01T12:45:25;29.92;;;14.32;;
26201;SDS011;13944;28.562;77.188;2022-08-01T12:47:54;28.48;;;14.77;;
26201;SDS011;13944;28.562;77.188;2022-08-01T12:50:23;29.25;;;14.57;;
26201;SDS011;13944;28.562;77.188;2022-08-01T12:52:54;34.00;;;15.38;;
26201;SDS011;13944;28.562;77.188;2022-08-01T12:55:21;39.22;;;15.80;;
26201;SDS011;13944;28.562;77.188;2022-08-01T12:57:50;35.28;;;15.77;;
26201;SDS011;13944;28.562;77.188;2022-08-01T13:02:45;28.73;;;15.82;;
26201;SDS011;13944;28.562;77.188;2022-08-01T13:05:12;28.90;;;14.73;;
26201;SDS011;13944;28.562;77.188;2022-08-01T13:07:47;32.90;;;15.95;;
26201;SDS011;13944;28.562;77.188;2022-08-01T13:10:14;30.25;;;15.05;;
26201;SDS011;13944;28.562;77.188;2022-08-01T13:12:42;28.48;;;15.73;;
26201;SDS011;13944;28.562;77.188;2022-08-01T13:15:18;34.75;;;15.15;;
26201;SDS011;13944;28.562;77.188;2022-08-01T13:17:44;32.40;;;15.50;;
26201;SDS011;13944;28.562;77.188;2022-08-01T13:20:20;33.58;;;15.20;;
26201;SDS011;13944;28.562;77.188;2022-08-01T13:22:47;34.17;;;14.95;;
26201;SDS011;13944;28.562;77.188;2022-08-01T13:25:14;31.15;;;14.65;;
26201;SDS011;13944;28.562;77.188;2022-08-01T13:27:41;32.17;;;15.77;;
26201;SDS011;13944;28.562;77.188;2022-08-01T13:30:19;33.00;;;16.83;;
26201;SDS011;13944;28.562;77.188;2022-08-01T13:32:57;37.47;;;16.35;;
26201;SDS011;13944;28.562;77.188;2022-08-01T13:35:23;35.40;;;15.52;;
26201;SDS011;13944;28.562;77.188;2022-08-01T13:37:50;35.08;;;14.85;;
26201;SDS011;13944;28.562;77.188;2022-08-01T13:40:23;33.45;;;15.68;;
26201;SDS011;13944;28.562;77.188;2022-08-01T13:42:50;29.98;;;14.40;;
26201;SDS011;13944;28.562;77.188;2022-08-01T13:45:17;31.92;;;15.60;;
26201;SDS011;13944;28.562;77.188;2022-08-01T13:47:44;38.78;;;15.10;;
26201;SDS011;13944;28.562;77.188;2022-08-01T13:50:10;33.00;;;15.02;;
26201;SDS011;13944;28.562;77.188;2022-08-01T13:52:37;34.55;;;15.60;;
26201;SDS011;13944;28.562;77.188;2022-08-01T13:55:03;33.80;;;15.32;;
26201;SDS011;13944;28.562;77.188;2022-08-01T13:57:30;40.05;;;15.70;;
26201;SDS011;13944;28.562;77.188;2022-08-01T13:59:57;33.25;;;18.27;;
26201;SDS011;13944;28.562;77.188;2022-08-01T14:02:26;34.00;;;17.13;;
26201;SDS011;13944;28.562;77.188;2022-08-01T14:04:53;37.83;;;17.48;;
26201;SDS011;13944;28.562;77.188;2022-08-01T14:07:20;42.03;;;16.77;;
26201;SDS011;13944;28.562;77.188;2022-08-01T14:09:47;35.20;;;16.23;;
26201;SDS011;13944;28.562;77.188;2022-08-01T14:12:13;35.72;;;16.83;;
26201;SDS011;13944;28.562;77.188;2022-08-01T14:14:40;33.63;;;16.40;;
26201;SDS011;13944;28.562;77.188;2022-08-01T14:17:07;37.78;;;16.58;;
26201;SDS011;13944;28.562;77.188;2022-08-01T14:19:33;35.33;;;17.17;;
26201;SDS011;13944;28.562;77.188;2022-08-01T14:22:00;35.25;;;17.13;;
26201;SDS011;13944;28.562;77.188;2022-08-01T14:24:26;31.35;;;16.98;;
26201;SDS011;13944;28.562;77.188;2022-08-01T14:26:53;42.45;;;17.05;;
26201;SDS011;13944;28.562;77.188;2022-08-01T14:29:19;37.53;;;16.77;;
26201;SDS011;13944;28.562;77.188;2022-08-01T14:31:46;33.05;;;16.35;;
26201;SDS011;13944;28.562;77.188;2022-08-01T14:34:13;42.55;;;16.23;;
26201;SDS011;13944;28.562;77.188;2022-08-01T14:36:40;30.95;;;16.48;;
26201;SDS011;13944;28.562;77.188;2022-08-01T14:39:07;37.92;;;16.35;;
26201;SDS011;13944;28.562;77.188;2022-08-01T14:41:33;30.05;;;15.57;;
26201;SDS011;13944;28.562;77.188;2022-08-01T14:44:00;35.22;;;14.60;;